Time,TemperatureF,DewpointF,PressureIn,WindDirection,WindDirectionDegrees,WindSpeedMPH,WindSpeedGustMPH,Humidity,HourlyPrecipIn,Conditions,Clouds,dailyrainin,SolarRadiationWatts/m^2,SoftwareType,DateUTC
2013-04-05 00:00:00,68.8,57.0,25.96,East,92,1.0,1.0,66,0.00,,,0.00,0,Wunderground v.1.15,2013-04-05 06:00:00,
2013-04-05 00:05:00,68.8,57.4,25.96,East,96,2.0,7.0,67,0.00,,,0.00,0,Wunderground v.1.15,2013-04-05 06:05:00,
2013-04-05 00:10:00,68.7,57.7,25.96,SE,143,3.0,3.0,68,0.00,,,0.00,0,Wunderground v.1.15,2013-04-05 06:10:00,
2013-04-05 00:20:00,68.3,58.1,25.96,ESE,106,2.0,2.0,70,0.00,,,0.00,0,Wunderground v.1.15,2013-04-05 06:20:00,
2013-04-05 00:25:00,68.3,58.5,25.96,East,101,3.0,6.0,71,0.00,,,0.00,0,Wunderground v.1.15,2013-04-05 06:25:00,
2013-04-05 00:30:00,68.2,58.8,25.96,SW,223,3.0,3.0,72,0.00,,,0.00,0,Wunderground v.1.15,2013-04-05 06:30:00,
2013-04-05 00:35:00,68.2,58.8,25.96,ENE,69,2.0,3.0,72,0.00,,,0.00,0,Wunderground v.1.15,2013-04-05 06:35:00,
2013-04-05 00:45:00,68.2,58.8,25.95,NW,312,1.0,2.0,72,0.00,,,0.00,0,Wunderground v.1.15,2013-04-05 06:45:00,
2013-04-05 00:50:00,68.3,58.9,25.95,East,94,1.0,1.0,72,0.00,,,0.00,0,Wunderground v.1.15,2013-04-05 06:50:00,
2013-04-05 00:55:00,68.3,58.9,25.95,East,94,1.0,1.0,72,0.00,,,0.00,0,Wunderground v.1.15,2013-04-05 06:55:00,
2013-04-05 01:00:00,68.3,58.9,25.95,East,101,1.0,4.0,72,0.00,,,0.00,0,Wunderground v.1.15,2013-04-05 07:00:00,
2013-04-05 01:10:00,68.3,59.3,25.95,East,94,1.0,2.0,73,0.00,,,0.00,0,Wunderground v.1.15,2013-04-05 07:10:00,
2013-04-05 01:20:00,68.5,59.9,25.94,East,94,0.0,0.0,74,0.00,,,0.00,0,Wunderground v.1.15,2013-04-05 07:20:00,
2013-04-05 01:25:00,68.5,60.3,25.94,East,94,0.0,0.0,75,0.00,,,0.00,0,Wunderground v.1.15,2013-04-05 07:25:00,
2013-04-05 01:30:00,68.5,60.3,25.94,East,94,0.0,2.0,75,0.00,,,0.00,0,Wunderground v.1.15,2013-04-05 07:30:00,
2013-04-05 01:35:00,68.3,60.1,25.94,WNW,292,0.0,2.0,75,0.00,,,0.00,0,Wunderground v.1.15,2013-04-05 07:35:00,
2013-04-05 01:45:00,68.0,60.2,25.94,NNE,15,1.0,1.0,76,0.00,,,0.00,0,Wunderground v.1.15,2013-04-05 07:45:00,
2013-04-05 01:50:00,68.0,60.2,25.94,SE,146,1.0,1.0,76,0.00,,,0.00,0,Wunderground v.1.15,2013-04-05 07:50:00,
2013-04-05 02:00:00,67.8,60.0,25.93,SE,146,0.0,0.0,76,0.00,,,0.00,0,Wunderground v.1.15,2013-04-05 08:00:00,
2013-04-05 02:05:00,67.7,60.2,25.93,SE,146,0.0,0.0,77,0.00,,,0.00,0,Wunderground v.1.15,2013-04-05 08:05:00,
2013-04-05 02:10:00,67.7,60.2,25.93,SE,146,0.0,0.0,77,0.00,,,0.00,0,Wunderground v.1.15,2013-04-05 08:10:00,
2013-04-05 02:15:00,67.7,60.2,25.93,SE,146,0.0,1.0,77,0.00,,,0.00,0,Wunderground v.1.15,2013-04-05 08:15:00,
2013-04-05 02:25:00,67.7,60.2,25.93,SE,146,1.0,1.0,77,0.00,,,0.00,0,Wunderground v.1.15,2013-04-05 08:25:00,
2013-04-05 02:30:00,67.7,60.6,25.92,SE,146,1.0,1.0,78,0.00,,,0.00,0,Wunderground v.1.15,2013-04-05 08:30:00,
2013-04-05 02:35:00,67.7,60.6,25.92,SE,146,0.0,1.0,78,0.00,,,0.00,0,Wunderground v.1.15,2013-04-05 08:35:00,
2013-04-05 02:45:00,67.3,60.9,25.92,SE,146,0.0,1.0,80,0.00,,,0.00,0,Wunderground v.1.15,2013-04-05 08:45:00,
2013-04-05 02:55:00,67.3,60.9,25.92,SE,145,0.0,1.0,80,0.00,,,0.00,0,Wunderground v.1.15,2013-04-05 08:55:00,
2013-04-05 03:00:00,67.3,60.9,25.92,East,100,1.0,1.0,80,0.00,,,0.00,0,Wunderground v.1.15,2013-04-05 09:00:00,
2013-04-05 03:10:00,67.3,59.8,25.91,NE,44,2.0,5.0,77,0.00,,,0.00,0,Wunderground v.1.15,2013-04-05 09:10:00,
2013-04-05 03:15:00,67.5,59.7,25.91,South,189,3.0,5.0,76,0.00,,,0.00,0,Wunderground v.1.15,2013-04-05 09:15:00,
2013-04-05 03:20:00,67.5,59.7,25.92,NNE,26,3.0,3.0,76,0.00,,,0.00,0,Wunderground v.1.15,2013-04-05 09:20:00,
2013-04-05 03:25:00,67.5,59.7,25.92,East,92,2.0,3.0,76,0.00,,,0.00,0,Wunderground v.1.15,2013-04-05 09:25:00,
2013-04-05 03:30:00,67.5,59.7,25.92,NNE,26,1.0,1.0,76,0.00,,,0.00,0,Wunderground v.1.15,2013-04-05 09:30:00,
2013-04-05 03:40:00,67.5,59.7,25.92,NNE,21,1.0,1.0,76,0.00,,,0.00,0,Wunderground v.1.15,2013-04-05 09:40:00,
2013-04-05 03:45:00,67.5,59.7,25.92,NNW,335,1.0,1.0,76,0.00,,,0.00,0,Wunderground v.1.15,2013-04-05 09:45:00,
2013-04-05 03:50:00,67.7,59.9,25.93,ESE,102,1.0,1.0,76,0.00,,,0.00,0,Wunderground v.1.15,2013-04-05 09:50:00,
2013-04-05 03:55:00,67.7,59.9,25.93,ESE,109,2.0,2.0,76,0.00,,,0.00,0,Wunderground v.1.15,2013-04-05 09:55:00,
2013-04-05 04:00:00,67.7,59.9,25.93,NNW,348,1.0,1.0,76,0.00,,,0.00,0,Wunderground v.1.15,2013-04-05 10:00:00,
2013-04-05 04:05:00,67.8,60.0,25.93,NNW,338,0.0,1.0,76,0.00,,,0.00,0,Wunderground v.1.15,2013-04-05 10:05:00,
2013-04-05 04:10:00,67.8,60.0,25.93,East,94,1.0,1.0,76,0.00,,,0.00,0,Wunderground v.1.15,2013-04-05 10:10:00,
2013-04-05 04:15:00,68.0,60.2,25.93,ESE,104,1.0,5.0,76,0.00,,,0.00,0,Wunderground v.1.15,2013-04-05 10:15:00,
2013-04-05 04:20:00,68.2,60.0,25.93,ENE,63,1.0,1.0,75,0.00,,,0.00,0,Wunderground v.1.15,2013-04-05 10:20:00,
2013-04-05 04:25:00,68.7,59.7,25.93,South,169,2.0,2.0,73,0.00,,,0.00,0,Wunderground v.1.15,2013-04-05 10:25:00,
2013-04-05 04:30:00,69.0,60.0,25.93,ESE,103,2.0,2.0,73,0.00,,,0.00,0,Wunderground v.1.15,2013-04-05 10:30:00,
2013-04-05 04:40:00,69.0,59.6,25.93,ESE,109,2.0,2.0,72,0.00,,,0.00,0,Wunderground v.1.15,2013-04-05 10:40:00,
2013-04-05 04:45:00,68.8,59.4,25.94,East,82,2.0,2.0,72,0.00,,,0.00,0,Wunderground v.1.15,2013-04-05 10:45:00,
2013-04-05 04:50:00,68.7,59.3,25.94,East,86,2.0,2.0,72,0.00,,,0.00,0,Wunderground v.1.15,2013-04-05 10:50:00,
2013-04-05 04:55:00,68.7,59.3,25.94,East,89,1.0,2.0,72,0.00,,,0.00,0,Wunderground v.1.15,2013-04-05 10:55:00,
2013-04-05 05:00:00,68.3,59.3,25.94,East,88,1.0,1.0,73,0.00,,,0.00,0,Wunderground v.1.15,2013-04-05 11:00:00,
2013-04-05 05:05:00,68.2,59.6,25.94,East,97,1.0,1.0,74,0.00,,,0.00,0,Wunderground v.1.15,2013-04-05 11:05:00,
2013-04-05 05:15:00,67.8,59.6,25.94,East,93,0.0,0.0,75,0.00,,,0.00,0,Wunderground v.1.15,2013-04-05 11:15:00,
2013-04-05 05:20:00,67.7,59.9,25.95,East,93,0.0,2.0,76,0.00,,,0.00,0,Wunderground v.1.15,2013-04-05 11:20:00,
2013-04-05 05:25:00,67.5,59.7,25.95,East,98,1.0,2.0,76,0.00,,,0.00,0,Wunderground v.1.15,2013-04-05 11:25:00,
2013-04-05 05:30:00,67.5,60.0,25.95,East,98,1.0,1.0,77,0.00,,,0.00,5,Wunderground v.1.15,2013-04-05 11:30:00,
2013-04-05 05:40:00,67.5,60.0,25.95,SE,139,0.0,0.0,77,0.00,,,0.00,9,Wunderground v.1.15,2013-04-05 11:40:00,
2013-04-05 05:45:00,67.5,60.0,25.95,East,86,0.0,0.0,77,0.00,,,0.00,12,Wunderground v.1.15,2013-04-05 11:45:00,
2013-04-05 05:50:00,67.5,60.0,25.96,East,86,0.0,0.0,77,0.00,,,0.00,16,Wunderground v.1.15,2013-04-05 11:50:00,
2013-04-05 05:55:00,67.5,60.0,25.96,East,86,0.0,1.0,77,0.00,,,0.00,21,Wunderground v.1.15,2013-04-05 11:55:00,
2013-04-05 06:05:00,67.7,60.2,25.96,NE,53,1.0,3.0,77,0.00,,,0.00,30,Wunderground v.1.15,2013-04-05 12:05:00,
2013-04-05 06:10:00,67.8,60.0,25.96,ENE,77,1.0,2.0,76,0.00,,,0.00,35,Wunderground v.1.15,2013-04-05 12:10:00,
2013-04-05 06:15:00,68.0,60.2,25.97,ESE,110,1.0,2.0,76,0.00,,,0.00,40,Wunderground v.1.15,2013-04-05 12:15:00,
2013-04-05 06:25:00,68.3,60.1,25.97,SE,145,3.0,4.0,75,0.00,,,0.00,54,Wunderground v.1.15,2013-04-05 12:25:00,
2013-04-05 06:30:00,68.7,60.1,25.97,ESE,107,3.0,3.0,74,0.00,,,0.00,62,Wunderground v.1.15,2013-04-05 12:30:00,
2013-04-05 06:40:00,69.2,60.2,25.98,ENE,60,1.0,1.0,73,0.00,,,0.00,74,Wunderground v.1.15,2013-04-05 12:40:00,
2013-04-05 06:45:00,69.2,60.2,25.98,ENE,64,1.0,1.0,73,0.00,,,0.00,84,Wunderground v.1.15,2013-04-05 12:45:00,
2013-04-05 06:50:00,69.2,60.2,25.98,North,5,1.0,1.0,73,0.00,,,0.00,97,Wunderground v.1.15,2013-04-05 12:50:00,
2013-04-05 06:55:00,69.3,61.0,25.98,SSE,168,1.0,1.0,75,0.00,,,0.00,113,Wunderground v.1.15,2013-04-05 12:55:00,
2013-04-05 07:00:00,69.5,61.6,25.98,ENE,63,1.0,1.0,76,0.00,,,0.00,132,Wunderground v.1.15,2013-04-05 13:00:00,
2013-04-05 07:10:00,69.5,61.2,25.98,East,80,2.0,3.0,75,0.00,,,0.00,155,Wunderground v.1.15,2013-04-05 13:10:00,
2013-04-05 07:15:00,69.7,60.7,25.99,East,84,2.0,3.0,73,0.00,,,0.00,167,Wunderground v.1.15,2013-04-05 13:15:00,
2013-04-05 07:25:00,70.2,60.7,25.99,East,84,1.0,1.0,72,0.00,,,0.00,207,Wunderground v.1.15,2013-04-05 13:25:00,
2013-04-05 07:30:00,70.3,61.2,26.00,ESE,106,1.0,1.0,73,0.00,,,0.00,229,Wunderground v.1.15,2013-04-05 13:30:00,
2013-04-05 07:40:00,71.2,62.5,26.00,NW,315,2.0,2.0,74,0.00,,,0.00,492,Wunderground v.1.15,2013-04-05 13:40:00,
2013-04-05 07:45:00,71.9,62.4,26.00,SE,144,4.0,4.0,72,0.00,,,0.00,452,Wunderground v.1.15,2013-04-05 13:45:00,
2013-04-05 07:50:00,72.2,62.3,26.00,ESE,104,4.0,5.0,71,0.00,,,0.00,383,Wunderground v.1.15,2013-04-05 13:50:00,
2013-04-05 07:55:00,72.0,62.5,26.00,ENE,67,4.0,5.0,72,0.00,,,0.00,543,Wunderground v.1.15,2013-04-05 13:55:00,
2013-04-05 08:00:00,72.9,62.1,26.00,NE,46,3.0,3.0,69,0.00,,,0.00,376,Wunderground v.1.15,2013-04-05 14:00:00,
2013-04-05 08:10:00,72.7,61.9,26.01,East,94,4.0,5.0,69,0.00,,,0.00,290,Wunderground v.1.15,2013-04-05 14:10:00,
2013-04-05 08:15:00,72.4,62.1,26.01,ESE,104,4.0,8.0,70,0.00,,,0.00,329,Wunderground v.1.15,2013-04-05 14:15:00,
2013-04-05 08:25:00,73.1,62.3,26.00,North,5,4.0,5.0,69,0.00,,,0.00,411,Wunderground v.1.15,2013-04-05 14:25:00,
2013-04-05 08:30:00,73.1,62.3,26.01,NNE,13,4.0,4.0,69,0.00,,,0.00,288,Wunderground v.1.15,2013-04-05 14:30:00,
2013-04-05 08:40:00,73.8,62.2,26.01,North,360,4.0,7.0,67,0.00,,,0.00,719,Wunderground v.1.15,2013-04-05 14:40:00,
2013-04-05 08:45:00,74.6,62.5,26.01,SSE,164,4.0,7.0,66,0.00,,,0.00,696,Wunderground v.1.15,2013-04-05 14:45:00,
2013-04-05 08:50:00,75.0,62.4,26.00,South,191,3.0,4.0,65,0.00,,,0.00,689,Wunderground v.1.15,2013-04-05 14:50:00,
2013-04-05 09:00:00,75.2,62.2,26.00,ESE,118,4.0,11.0,64,0.00,,,0.00,719,Wunderground v.1.15,2013-04-05 15:00:00,
2013-04-05 09:05:00,75.3,62.3,26.00,NNW,335,5.0,11.0,64,0.00,,,0.00,724,Wunderground v.1.15,2013-04-05 15:05:00,
2013-04-05 09:15:00,75.3,61.8,26.01,NE,56,5.0,7.0,63,0.00,,,0.00,788,Wunderground v.1.15,2013-04-05 15:15:00,
2013-04-05 09:20:00,75.9,62.4,26.01,WSW,257,5.0,8.0,63,0.00,,,0.00,211,Wunderground v.1.15,2013-04-05 15:20:00,
2013-04-05 09:25:00,75.3,62.3,26.01,NE,44,5.0,8.0,64,0.00,,,0.00,452,Wunderground v.1.15,2013-04-05 15:25:00,
2013-04-05 09:35:00,74.5,62.4,26.00,ESE,106,4.0,7.0,66,0.00,,,0.00,292,Wunderground v.1.15,2013-04-05 15:35:00,
2013-04-05 09:40:00,74.1,62.4,26.00,NNE,22,4.0,4.0,67,0.00,,,0.00,278,Wunderground v.1.15,2013-04-05 15:40:00,
2013-04-05 09:50:00,73.9,62.2,26.00,NE,54,5.0,5.0,67,0.00,,,0.00,320,Wunderground v.1.15,2013-04-05 15:50:00,
2013-04-05 09:55:00,73.9,62.2,26.01,East,81,4.0,5.0,67,0.00,,,0.00,306,Wunderground v.1.15,2013-04-05 15:55:00,
2013-04-05 10:00:00,73.9,62.2,26.00,NNE,12,4.0,11.0,67,0.00,,,0.00,267,Wunderground v.1.15,2013-04-05 16:00:00,
2013-04-05 10:10:00,73.1,62.7,26.01,ESE,111,4.0,4.0,70,0.00,,,0.00,246,Wunderground v.1.15,2013-04-05 16:10:00,
2013-04-05 10:15:00,73.4,62.6,26.01,West,265,3.0,4.0,69,0.00,,,0.00,272,Wunderground v.1.15,2013-04-05 16:15:00,
2013-04-05 10:25:00,73.4,62.6,26.01,North,360,4.0,7.0,69,0.00,,,0.00,357,Wunderground v.1.15,2013-04-05 16:25:00,
2013-04-05 10:30:00,73.2,62.4,26.00,NNW,330,5.0,6.0,69,0.00,,,0.00,452,Wunderground v.1.15,2013-04-05 16:30:00,
2013-04-05 10:35:00,73.4,62.6,26.01,SE,134,5.0,6.0,69,0.00,,,0.00,373,Wunderground v.1.15,2013-04-05 16:35:00,
2013-04-05 10:45:00,73.2,62.8,26.01,ENE,73,5.0,10.0,70,0.00,,,0.00,281,Wunderground v.1.15,2013-04-05 16:45:00,
2013-04-05 10:55:00,73.4,62.2,26.00,NNW,333,4.0,5.0,68,0.00,,,0.00,290,Wunderground v.1.15,2013-04-05 16:55:00,
2013-04-05 11:05:00,73.6,62.4,26.00,North,355,5.0,7.0,68,0.00,,,0.00,285,Wunderground v.1.15,2013-04-05 17:05:00,
2013-04-05 11:15:00,74.1,62.9,25.99,North,11,4.0,5.0,68,0.00,,,0.00,431,Wunderground v.1.15,2013-04-05 17:15:00,
2013-04-05 11:20:00,74.6,62.5,25.99,WSW,246,3.0,3.0,66,0.00,,,0.00,283,Wunderground v.1.15,2013-04-05 17:20:00,
2013-04-05 11:25:00,74.8,63.1,25.99,NNE,33,3.0,7.0,67,0.00,,,0.00,308,Wunderground v.1.15,2013-04-05 17:25:00,
2013-04-05 11:30:00,74.8,62.7,25.99,ENE,78,3.0,3.0,66,0.00,,,0.00,302,Wunderground v.1.15,2013-04-05 17:30:00,
2013-04-05 11:35:00,74.8,62.7,25.98,NNE,16,3.0,5.0,66,0.00,,,0.00,225,Wunderground v.1.15,2013-04-05 17:35:00,
2013-04-05 11:40:00,74.8,62.7,25.98,North,11,3.0,3.0,66,0.00,,,0.00,253,Wunderground v.1.15,2013-04-05 17:40:00,
2013-04-05 11:45:00,75.0,62.9,25.98,NNE,13,3.0,3.0,66,0.00,,,0.00,304,Wunderground v.1.15,2013-04-05 17:45:00,
2013-04-05 11:50:00,75.0,62.9,25.97,North,360,3.0,6.0,66,0.00,,,0.00,422,Wunderground v.1.15,2013-04-05 17:50:00,
2013-04-05 12:00:00,76.4,63.3,25.96,North,355,4.0,8.0,64,0.00,,,0.00,1055,Wunderground v.1.15,2013-04-05 18:00:00,
2013-04-05 12:10:00,77.1,63.1,25.96,ESE,105,4.0,4.0,62,0.00,,,0.00,408,Wunderground v.1.15,2013-04-05 18:10:00,
2013-04-05 12:15:00,77.1,62.6,25.96,North,355,3.0,7.0,61,0.00,,,0.00,383,Wunderground v.1.15,2013-04-05 18:15:00,
2013-04-05 12:25:00,76.6,62.6,25.95,NNE,26,4.0,5.0,62,0.00,,,0.00,192,Wunderground v.1.15,2013-04-05 18:25:00,
2013-04-05 12:35:00,75.7,62.2,25.95,NNE,28,3.0,8.0,63,0.00,,,0.00,167,Wunderground v.1.15,2013-04-05 18:35:00,
2013-04-05 12:45:00,74.8,62.7,25.94,NNW,340,4.0,5.0,66,0.00,,,0.00,251,Wunderground v.1.15,2013-04-05 18:45:00,
2013-04-05 12:55:00,74.6,62.9,25.94,NNE,15,5.0,5.0,67,0.00,,,0.00,288,Wunderground v.1.15,2013-04-05 18:55:00,
2013-04-05 13:00:00,74.6,62.5,25.94,NNE,30,5.0,5.0,66,0.00,,,0.00,367,Wunderground v.1.15,2013-04-05 19:00:00,
2013-04-05 13:05:00,74.6,62.5,25.93,NNE,30,4.0,5.0,66,0.00,,,0.00,209,Wunderground v.1.15,2013-04-05 19:05:00,
2013-04-05 13:15:00,75.2,63.1,25.93,North,5,3.0,3.0,66,0.00,,,0.00,265,Wunderground v.1.15,2013-04-05 19:15:00,
2013-04-05 13:20:00,74.8,63.9,25.93,NNE,15,3.0,3.0,69,0.00,,,0.00,244,Wunderground v.1.15,2013-04-05 19:20:00,
2013-04-05 13:25:00,74.1,65.7,25.93,ESE,120,4.0,8.0,75,1.53,,,0.03,204,Wunderground v.1.15,2013-04-05 19:25:00,
2013-04-05 13:35:00,71.5,65.4,25.93,ESE,107,4.0,5.0,81,0.38,,,0.09,236,Wunderground v.1.15,2013-04-05 19:35:00,
2013-04-05 13:40:00,71.0,65.6,25.93,SSE,168,4.0,4.0,83,0.15,,,0.10,323,Wunderground v.1.15,2013-04-05 19:40:00,
2013-04-05 13:50:00,71.0,65.2,25.93,East,88,3.0,3.0,82,0.04,,,0.10,237,Wunderground v.1.15,2013-04-05 19:50:00,
2013-04-05 13:55:00,71.0,64.5,25.92,SE,130,3.0,3.0,80,0.00,,,0.10,156,Wunderground v.1.15,2013-04-05 19:55:00,
2013-04-05 14:00:00,71.2,64.7,25.92,NE,40,4.0,4.0,80,0.00,,,0.10,76,Wunderground v.1.15,2013-04-05 20:00:00,
2013-04-05 14:05:00,70.3,63.8,25.93,SSE,154,5.0,5.0,80,1.06,,,0.16,70,Wunderground v.1.15,2013-04-05 20:05:00,
2013-04-05 14:10:00,69.2,63.8,25.92,ENE,78,5.0,5.0,83,0.33,,,0.20,76,Wunderground v.1.15,2013-04-05 20:10:00,
2013-04-05 14:20:00,68.7,65.6,25.92,WSW,255,4.0,4.0,90,0.23,,,0.22,84,Wunderground v.1.15,2013-04-05 20:20:00,
2013-04-05 14:25:00,68.7,65.3,25.92,ENE,59,5.0,5.0,89,0.08,,,0.22,90,Wunderground v.1.15,2013-04-05 20:25:00,
2013-04-05 14:35:00,68.7,65.3,25.92,NNE,26,4.0,6.0,89,0.00,,,0.22,76,Wunderground v.1.15,2013-04-05 20:35:00,
2013-04-05 14:40:00,68.7,64.3,25.92,NE,44,5.0,6.0,86,0.00,,,0.22,90,Wunderground v.1.15,2013-04-05 20:40:00,
2013-04-05 14:45:00,68.3,63.9,25.92,North,360,5.0,7.0,86,0.00,,,0.22,102,Wunderground v.1.15,2013-04-05 20:45:00,
2013-04-05 14:55:00,68.0,63.0,25.92,North,5,5.0,5.0,84,0.00,,,0.22,132,Wunderground v.1.15,2013-04-05 20:55:00,
2013-04-05 15:05:00,67.8,62.1,25.92,North,360,4.0,5.0,82,0.00,,,0.22,121,Wunderground v.1.15,2013-04-05 21:05:00,
2013-04-05 15:10:00,68.0,62.6,25.92,ENE,61,4.0,4.0,83,0.00,,,0.22,114,Wunderground v.1.15,2013-04-05 21:10:00,
2013-04-05 15:15:00,68.2,63.2,25.92,ENE,57,4.0,4.0,84,0.00,,,0.22,120,Wunderground v.1.15,2013-04-05 21:15:00,
2013-04-05 15:20:00,68.3,62.6,25.92,NW,304,4.0,4.0,82,0.00,,,0.22,144,Wunderground v.1.15,2013-04-05 21:20:00,
2013-04-05 15:30:00,68.8,63.1,25.93,NNW,329,5.0,7.0,82,0.00,,,0.22,97,Wunderground v.1.15,2013-04-05 21:30:00,
2013-04-05 15:40:00,68.8,63.1,25.92,NE,53,4.0,4.0,82,0.00,,,0.22,149,Wunderground v.1.15,2013-04-05 21:40:00,
2013-04-05 15:50:00,68.8,62.7,25.91,NE,34,5.0,5.0,81,0.00,,,0.22,176,Wunderground v.1.15,2013-04-05 21:50:00,
2013-04-05 15:55:00,68.8,62.7,25.92,NNE,17,6.0,6.0,81,0.00,,,0.22,134,Wunderground v.1.15,2013-04-05 21:55:00,
2013-04-05 16:05:00,69.0,62.9,25.92,NNW,336,4.0,5.0,81,0.00,,,0.22,93,Wunderground v.1.15,2013-04-05 22:05:00,
2013-04-05 16:10:00,68.7,62.6,25.92,NNW,331,5.0,6.0,81,0.00,,,0.22,77,Wunderground v.1.15,2013-04-05 22:10:00,
2013-04-05 16:15:00,68.3,62.9,25.93,NW,319,5.0,6.0,83,0.00,,,0.22,51,Wunderground v.1.15,2013-04-05 22:15:00,
2013-04-05 16:25:00,67.5,62.5,25.93,NNW,340,6.0,7.0,84,0.00,,,0.22,37,Wunderground v.1.15,2013-04-05 22:25:00,
2013-04-05 16:30:00,67.2,62.5,25.93,North,360,5.0,5.0,85,0.00,,,0.22,39,Wunderground v.1.15,2013-04-05 22:30:00,
2013-04-05 16:40:00,67.0,62.0,25.93,SSE,165,4.0,6.0,84,0.00,,,0.22,28,Wunderground v.1.15,2013-04-05 22:40:00,
2013-04-05 16:45:00,67.0,62.0,25.92,NE,56,3.0,6.0,84,0.00,,,0.22,28,Wunderground v.1.15,2013-04-05 22:45:00,
2013-04-05 16:50:00,67.2,61.9,25.92,SSE,155,3.0,3.0,83,0.00,,,0.22,35,Wunderground v.1.15,2013-04-05 22:50:00,
2013-04-05 16:55:00,67.3,61.6,25.92,SE,139,3.0,6.0,82,0.00,,,0.22,39,Wunderground v.1.15,2013-04-05 22:55:00,
2013-04-05 17:05:00,67.5,61.5,25.92,ESE,104,4.0,6.0,81,0.00,,,0.22,40,Wunderground v.1.15,2013-04-05 23:05:00,
2013-04-05 17:10:00,67.7,61.7,25.92,East,96,4.0,4.0,81,0.00,,,0.22,35,Wunderground v.1.15,2013-04-05 23:10:00,
2013-04-05 17:15:00,67.8,61.4,25.92,East,95,3.0,5.0,80,0.00,,,0.22,28,Wunderground v.1.15,2013-04-05 23:15:00,
2013-04-05 17:25:00,68.5,61.4,25.92,ESE,115,4.0,6.0,78,0.00,,,0.22,18,Wunderground v.1.15,2013-04-05 23:25:00,
2013-04-05 17:35:00,69.3,61.8,25.93,SE,138,4.0,6.0,77,0.00,,,0.22,12,Wunderground v.1.15,2013-04-05 23:35:00,
2013-04-05 17:40:00,69.5,62.3,25.93,South,175,5.0,5.0,78,0.00,,,0.22,9,Wunderground v.1.15,2013-04-05 23:40:00,
2013-04-05 17:45:00,69.7,62.9,25.93,SE,139,5.0,5.0,79,0.00,,,0.22,7,Wunderground v.1.15,2013-04-05 23:45:00,
2013-04-05 17:55:00,69.2,63.1,25.93,ESE,123,5.0,6.0,81,0.00,,,0.22,0,Wunderground v.1.15,2013-04-05 23:55:00,
2013-04-05 18:05:00,68.3,63.3,25.94,ESE,111,4.0,5.0,84,0.00,,,0.22,0,Wunderground v.1.15,2013-04-06 00:05:00,
2013-04-05 18:10:00,68.0,63.3,25.95,NE,52,2.0,3.0,85,0.00,,,0.22,0,Wunderground v.1.15,2013-04-06 00:10:00,
2013-04-05 18:15:00,68.0,63.3,25.95,SE,135,3.0,6.0,85,0.00,,,0.22,0,Wunderground v.1.15,2013-04-06 00:15:00,
2013-04-05 18:25:00,68.0,63.0,25.96,West,261,3.0,4.0,84,0.00,,,0.22,0,Wunderground v.1.15,2013-04-06 00:25:00,
2013-04-05 18:30:00,67.8,62.1,25.96,East,86,3.0,3.0,82,0.00,,,0.22,0,Wunderground v.1.15,2013-04-06 00:30:00,
2013-04-05 18:35:00,67.7,62.0,25.97,ENE,57,3.0,3.0,82,0.00,,,0.22,0,Wunderground v.1.15,2013-04-06 00:35:00,
2013-04-05 18:45:00,67.5,62.2,25.97,ESE,121,2.0,4.0,83,0.00,,,0.22,0,Wunderground v.1.15,2013-04-06 00:45:00,
2013-04-05 18:50:00,67.5,61.8,25.97,ESE,121,2.0,4.0,82,0.00,,,0.22,0,Wunderground v.1.15,2013-04-06 00:50:00,
2013-04-05 18:55:00,67.5,61.8,25.96,East,96,3.0,4.0,82,0.00,,,0.22,0,Wunderground v.1.15,2013-04-06 00:55:00,
2013-04-05 19:00:00,67.7,62.0,25.96,SSE,159,3.0,3.0,82,0.00,,,0.22,0,Wunderground v.1.15,2013-04-06 01:00:00,
2013-04-05 19:05:00,67.7,61.7,25.96,ESE,103,1.0,3.0,81,0.00,,,0.22,0,Wunderground v.1.15,2013-04-06 01:05:00,
2013-04-05 19:15:00,68.0,62.3,25.96,ESE,103,0.0,1.0,82,0.00,,,0.22,0,Wunderground v.1.15,2013-04-06 01:15:00,
2013-04-05 19:25:00,67.5,62.2,25.97,ESE,103,0.0,0.0,83,0.00,,,0.22,0,Wunderground v.1.15,2013-04-06 01:25:00,
2013-04-05 19:30:00,67.3,62.3,25.97,ESE,103,0.0,1.0,84,0.00,,,0.22,0,Wunderground v.1.15,2013-04-06 01:30:00,
2013-04-05 19:40:00,67.3,62.0,25.97,SSE,151,3.0,3.0,83,0.00,,,0.22,0,Wunderground v.1.15,2013-04-06 01:40:00,
2013-04-05 19:45:00,67.3,61.6,25.97,SE,144,4.0,4.0,82,0.00,,,0.22,0,Wunderground v.1.15,2013-04-06 01:45:00,
2013-04-05 19:50:00,67.5,61.8,25.98,ENE,66,3.0,3.0,82,0.00,,,0.22,0,Wunderground v.1.15,2013-04-06 01:50:00,
2013-04-05 19:55:00,67.5,61.5,25.98,East,89,2.0,3.0,81,0.00,,,0.22,0,Wunderground v.1.15,2013-04-06 01:55:00,
2013-04-05 20:05:00,67.5,61.5,25.98,SE,135,2.0,3.0,81,0.00,,,0.22,0,Wunderground v.1.15,2013-04-06 02:05:00,
2013-04-05 20:15:00,67.0,61.0,25.99,WNW,283,1.0,1.0,81,0.00,,,0.22,0,Wunderground v.1.15,2013-04-06 02:15:00,
2013-04-05 20:25:00,66.8,60.8,25.99,SE,139,3.0,6.0,81,0.00,,,0.22,0,Wunderground v.1.15,2013-04-06 02:25:00,
2013-04-05 20:30:00,67.0,61.0,26.00,North,355,4.0,4.0,81,0.00,,,0.22,0,Wunderground v.1.15,2013-04-06 02:30:00,
2013-04-05 20:35:00,67.0,61.0,26.00,ENE,74,4.0,4.0,81,0.00,,,0.22,0,Wunderground v.1.15,2013-04-06 02:35:00,
2013-04-05 20:40:00,67.0,61.0,26.00,SE,130,3.0,5.0,81,0.00,,,0.22,0,Wunderground v.1.15,2013-04-06 02:40:00,
2013-04-05 20:45:00,67.0,61.0,26.00,SE,135,2.0,5.0,81,0.00,,,0.22,0,Wunderground v.1.15,2013-04-06 02:45:00,
2013-04-05 20:55:00,67.0,61.0,26.01,ENE,61,3.0,4.0,81,0.00,,,0.22,0,Wunderground v.1.15,2013-04-06 02:55:00,
2013-04-05 21:00:00,67.0,61.0,26.00,ESE,122,3.0,3.0,81,0.00,,,0.22,0,Wunderground v.1.15,2013-04-06 03:00:00,
2013-04-05 21:05:00,67.0,61.0,26.01,NE,36,2.0,3.0,81,0.00,,,0.22,0,Wunderground v.1.15,2013-04-06 03:05:00,
2013-04-05 21:15:00,67.2,60.8,26.01,ENE,67,2.0,4.0,80,0.00,,,0.22,0,Wunderground v.1.15,2013-04-06 03:15:00,
2013-04-05 21:20:00,67.2,60.8,26.01,ESE,109,1.0,1.0,80,0.00,,,0.22,0,Wunderground v.1.15,2013-04-06 03:20:00,
2013-04-05 21:25:00,67.2,60.5,26.01,ESE,117,1.0,1.0,79,0.00,,,0.22,0,Wunderground v.1.15,2013-04-06 03:25:00,
2013-04-05 21:30:00,67.3,60.2,26.01,ENE,76,1.0,2.0,78,0.00,,,0.22,0,Wunderground v.1.15,2013-04-06 03:30:00,
2013-04-05 21:40:00,67.5,60.4,26.01,ENE,64,2.0,2.0,78,0.00,,,0.22,0,Wunderground v.1.15,2013-04-06 03:40:00,
2013-04-05 21:45:00,67.7,60.2,26.01,North,355,1.0,2.0,77,0.00,,,0.22,0,Wunderground v.1.15,2013-04-06 03:45:00,
2013-04-05 21:50:00,67.7,60.2,26.01,West,275,2.0,2.0,77,0.00,,,0.22,0,Wunderground v.1.15,2013-04-06 03:50:00,
2013-04-05 21:55:00,67.5,60.4,26.01,SE,142,2.0,2.0,78,0.00,,,0.22,0,Wunderground v.1.15,2013-04-06 03:55:00,
2013-04-05 22:00:00,67.5,60.0,26.01,ESE,107,1.0,5.0,77,0.00,,,0.22,0,Wunderground v.1.15,2013-04-06 04:00:00,
2013-04-05 22:05:00,67.5,60.0,26.00,East,94,2.0,5.0,77,0.00,,,0.22,0,Wunderground v.1.15,2013-04-06 04:05:00,
2013-04-05 22:10:00,67.5,60.4,26.00,ESE,123,4.0,4.0,78,0.00,,,0.22,0,Wunderground v.1.15,2013-04-06 04:10:00,
2013-04-05 22:15:00,67.3,60.6,26.00,SE,130,4.0,8.0,79,0.00,,,0.22,0,Wunderground v.1.15,2013-04-06 04:15:00,
2013-04-05 22:25:00,67.0,60.6,26.01,East,87,4.0,4.0,80,0.00,,,0.22,0,Wunderground v.1.15,2013-04-06 04:25:00,
2013-04-05 22:30:00,67.0,60.6,26.01,East,96,3.0,4.0,80,0.00,,,0.22,0,Wunderground v.1.15,2013-04-06 04:30:00,
2013-04-05 22:40:00,67.0,60.6,26.00,SSE,150,3.0,5.0,80,0.00,,,0.22,0,Wunderground v.1.15,2013-04-06 04:40:00,
2013-04-05 22:45:00,67.0,60.6,26.00,SSE,165,3.0,5.0,80,0.00,,,0.22,0,Wunderground v.1.15,2013-04-06 04:45:00,
2013-04-05 22:50:00,66.8,60.8,26.00,NE,35,2.0,2.0,81,0.00,,,0.22,0,Wunderground v.1.15,2013-04-06 04:50:00,
2013-04-05 22:55:00,66.8,60.8,26.00,ENE,64,2.0,4.0,81,0.00,,,0.22,0,Wunderground v.1.15,2013-04-06 04:55:00,
2013-04-05 23:05:00,66.7,60.7,26.00,SW,235,4.0,4.0,81,0.00,,,0.22,0,Wunderground v.1.15,2013-04-06 05:05:00,
2013-04-05 23:10:00,66.8,60.4,26.00,ENE,63,5.0,5.0,80,0.00,,,0.22,0,Wunderground v.1.15,2013-04-06 05:10:00,
2013-04-05 23:20:00,66.8,60.1,26.00,East,98,2.0,2.0,79,0.00,,,0.22,0,Wunderground v.1.15,2013-04-06 05:20:00,
2013-04-05 23:25:00,66.8,60.1,26.00,NNE,18,1.0,2.0,79,0.00,,,0.22,0,Wunderground v.1.15,2013-04-06 05:25:00,
2013-04-05 23:35:00,66.8,60.1,26.00,NNW,329,2.0,2.0,79,0.00,,,0.22,0,Wunderground v.1.15,2013-04-06 05:35:00,
2013-04-05 23:40:00,66.8,60.1,26.00,NNE,31,2.0,2.0,79,0.00,,,0.22,0,Wunderground v.1.15,2013-04-06 05:40:00,
2013-04-05 23:45:00,66.8,60.1,25.99,NE,52,2.0,2.0,79,0.00,,,0.22,0,Wunderground v.1.15,2013-04-06 05:45:00,
2013-04-05 23:50:00,66.8,60.1,25.99,WNW,291,2.0,3.0,79,0.00,,,0.22,0,Wunderground v.1.15,2013-04-06 05:50:00,
2013-04-05 23:55:00,66.8,60.1,25.99,South,170,2.0,3.0,79,0.00,,,0.22,0,Wunderground v.1.15,2013-04-06 05:55:00,